Time;durP1;ratioP1;P1;durP2;ratioP2;P2;SDS_P1;SDS_P2;PMS_P1;PMS_P2;Temp;Humidity;BMP_temperature;BMP_pressure;BME280_temperature;BME280_humidity;BME280_pressure;Samples;Min_cycle;Max_cycle;Signal;HPM_P1;HPM_P2
2024/03/15 00:02:13;;;;;;;8.27;4.28;;;9.40;99.90;;;;;;5053491;28;20029;-49
2024/03/15 00:04:38;;;;;;;5.32;3.67;;;9.30;99.90;;;;;;5052375;28;20033;-49
2024/03/15 00:07:05;;;;;;;7.03;4.65;;;9.30;99.90;;;;;;5050837;28;20035;-51
2024/03/15 00:09:31;;;;;;;10.70;4.03;;;9.30;99.90;;;;;;5048467;28;20356;-50
2024/03/15 00:11:57;;;;;;;6.47;4.22;;;9.20;99.90;;;;;;5054058;28;20032;-49
2024/03/15 00:14:22;;;;;;;8.05;4.70;;;9.20;99.90;;;;;;5048234;28;20032;-51
2024/03/15 00:16:50;;;;;;;8.63;4.30;;;9.10;99.90;;;;;;5050576;28;20056;-50
2024/03/15 00:19:17;;;;;;;8.07;4.45;;;9.10;99.90;;;;;;5053692;28;20025;-52
2024/03/15 00:21:43;;;;;;;9.98;3.83;;;9.20;99.90;;;;;;5052641;28;20372;-50
2024/03/15 00:24:08;;;;;;;7.78;3.63;;;9.10;99.90;;;;;;5047679;28;20032;-51
2024/03/15 00:26:37;;;;;;;6.95;4.50;;;9.10;99.90;;;;;;5051070;28;20483;-52
2024/03/15 00:29:03;;;;;;;8.18;4.05;;;9.10;99.90;;;;;;5050380;28;20048;-49
2024/03/15 00:31:29;;;;;;;8.10;4.43;;;9.00;99.90;;;;;;5047448;28;20552;-49
2024/03/15 00:33:55;;;;;;;8.02;4.50;;;9.00;99.90;;;;;;5050490;28;20026;-49
2024/03/15 00:36:20;;;;;;;8.45;4.05;;;9.00;99.90;;;;;;5048764;28;20032;-52
2024/03/15 00:38:46;;;;;;;8.05;4.50;;;9.00;99.90;;;;;;5046216;28;20017;-58
2024/03/15 00:41:11;;;;;;;10.70;4.38;;;9.00;99.90;;;;;;5053952;28;20045;-50
2024/03/15 00:43:37;;;;;;;7.32;4.47;;;9.00;99.90;;;;;;5059698;28;20452;-49
2024/03/15 00:46:03;;;;;;;5.45;3.53;;;9.10;99.90;;;;;;5055341;28;20519;-47
2024/03/15 00:48:28;;;;;;;7.75;3.92;;;9.10;99.90;;;;;;5056086;28;20021;-59
2024/03/15 00:50:54;;;;;;;14.27;5.95;;;9.20;99.90;;;;;;5055777;28;20387;-49
2024/03/15 00:53:20;;;;;;;6.72;4.35;;;9.30;99.90;;;;;;5053644;28;20112;-47
2024/03/15 00:55:45;;;;;;;9.50;4.22;;;9.30;99.90;;;;;;5051895;28;20048;-49
2024/03/15 00:58:11;;;;;;;5.25;3.58;;;9.40;99.90;;;;;;5059809;28;20025;-50
2024/03/15 01:00:37;;;;;;;5.55;3.63;;;9.50;99.90;;;;;;5053483;28;20021;-50
2024/03/15 01:03:03;;;;;;;7.22;4.07;;;9.40;99.90;;;;;;5051772;28;20475;-49
2024/03/15 01:05:28;;;;;;;9.07;3.90;;;9.40;99.90;;;;;;5049329;28;20029;-49
2024/03/15 01:07:54;;;;;;;6.47;3.92;;;9.40;99.90;;;;;;5051504;28;20068;-50
2024/03/15 01:10:20;;;;;;;8.98;4.40;;;9.40;99.90;;;;;;5059654;28;20029;-48
2024/03/15 01:12:46;;;;;;;8.43;3.47;;;9.30;99.90;;;;;;5073261;28;20032;-51
2024/03/15 01:15:12;;;;;;;5.18;3.42;;;9.30;99.90;;;;;;5058131;28;20033;-49
2024/03/15 01:17:37;;;;;;;7.43;3.95;;;9.30;99.90;;;;;;5053044;28;20032;-51
2024/03/15 01:20:05;;;;;;;9.02;4.22;;;9.20;99.90;;;;;;5051021;28;20059;-48
2024/03/15 01:22:32;;;;;;;5.82;3.72;;;9.20;99.90;;;;;;5046899;28;20033;-50
2024/03/15 01:24:58;;;;;;;7.13;4.05;;;9.10;99.90;;;;;;5049613;28;20017;-48
2024/03/15 01:27:24;;;;;;;11.40;4.72;;;9.10;99.90;;;;;;5051426;28;20028;-52
2024/03/15 01:29:50;;;;;;;6.75;3.80;;;9.00;99.90;;;;;;5053850;28;20036;-53
2024/03/15 01:32:16;;;;;;;6.75;3.90;;;9.10;99.90;;;;;;5047473;28;20398;-50
2024/03/15 01:34:42;;;;;;;6.30;4.10;;;9.10;99.90;;;;;;5052070;28;20112;-48
2024/03/15 01:37:07;;;;;;;7.82;4.25;;;9.10;99.90;;;;;;5054305;28;20035;-50
2024/03/15 01:39:33;;;;;;;7.70;3.78;;;9.20;99.90;;;;;;5061121;28;20044;-50
2024/03/15 01:41:58;;;;;;;6.50;4.20;;;9.20;99.90;;;;;;5049310;28;20494;-48
2024/03/15 01:44:24;;;;;;;7.93;4.03;;;9.20;99.90;;;;;;5051180;28;20423;-50
2024/03/15 01:46:51;;;;;;;6.30;3.80;;;9.30;99.90;;;;;;5052493;28;20703;-51
2024/03/15 01:49:17;;;;;;;6.15;3.70;;;9.30;99.90;;;;;;5053292;28;20040;-52
2024/03/15 01:51:43;;;;;;;5.45;3.58;;;9.40;99.90;;;;;;5046635;28;20025;-48
2024/03/15 01:54:10;;;;;;;7.93;4.05;;;9.40;99.90;;;;;;5052077;28;20513;-48
2024/03/15 01:56:36;;;;;;;8.57;4.35;;;9.30;99.90;;;;;;5052229;28;20029;-49
2024/03/15 01:59:03;;;;;;;5.70;3.42;;;9.30;99.90;;;;;;5051468;28;20029;-53
2024/03/15 02:01:28;;;;;;;9.10;3.97;;;9.30;99.90;;;;;;5051160;28;20051;-49
2024/03/15 02:03:58;;;;;;;7.60;3.47;;;9.20;99.90;;;;;;5050349;28;20033;-53
2024/03/15 02:06:24;;;;;;;9.23;3.83;;;9.20;99.90;;;;;;5050858;28;20187;-51
2024/03/15 02:08:54;;;;;;;7.90;4.15;;;9.20;99.90;;;;;;5051768;28;20107;-47
2024/03/15 02:11:20;;;;;;;4.88;3.80;;;9.20;99.90;;;;;;5053272;28;20394;-52
2024/03/15 02:13:45;;;;;;;11.52;4.30;;;9.20;99.90;;;;;;5051791;28;20096;-49
2024/03/15 02:16:11;;;;;;;7.40;4.30;;;9.30;99.90;;;;;;5048811;28;20025;-48
2024/03/15 02:18:38;;;;;;;10.10;4.35;;;9.40;99.90;;;;;;5045556;28;20044;-51
2024/03/15 02:21:03;;;;;;;5.60;3.55;;;9.40;99.90;;;;;;5051355;28;20036;-48
2024/03/15 02:23:29;;;;;;;11.95;4.30;;;9.40;99.90;;;;;;5046253;28;20509;-49
2024/03/15 02:25:54;;;;;;;6.88;3.55;;;9.50;99.90;;;;;;5051187;28;20410;-47
2024/03/15 02:28:22;;;;;;;9.13;4.10;;;9.50;99.90;;;;;;5051282;28;20440;-47
2024/03/15 02:30:48;;;;;;;5.40;3.40;;;9.60;99.90;;;;;;5058765;28;20078;-48
2024/03/15 02:33:13;;;;;;;6.25;3.72;;;9.50;99.90;;;;;;5050015;28;20037;-51
2024/03/15 02:35:40;;;;;;;10.63;3.70;;;9.50;99.90;;;;;;5049422;28;20029;-48
2024/03/15 02:38:06;;;;;;;7.13;3.45;;;9.50;99.90;;;;;;5052833;28;20071;-49
2024/03/15 02:40:31;;;;;;;7.45;3.70;;;9.50;99.90;;;;;;5064037;28;20112;-52
2024/03/15 02:42:57;;;;;;;5.85;2.83;;;9.60;99.90;;;;;;5049642;28;20106;-50
2024/03/15 02:45:25;;;;;;;5.32;2.90;;;9.60;99.90;;;;;;5050266;28;20060;-48
2024/03/15 02:47:50;;;;;;;5.78;3.85;;;9.60;99.90;;;;;;5050439;28;20031;-55
2024/03/15 02:50:17;;;;;;;7.43;3.65;;;9.70;99.90;;;;;;5048050;28;20033;-51
2024/03/15 02:52:43;;;;;;;6.95;3.40;;;9.70;99.90;;;;;;5050437;28;20040;-49
2024/03/15 02:55:10;;;;;;;6.85;3.60;;;9.70;99.90;;;;;;5054746;28;20017;-48
2024/03/15 02:57:36;;;;;;;5.25;2.83;;;9.80;99.90;;;;;;5051765;28;20100;-48
2024/03/15 03:00:02;;;;;;;4.93;2.95;;;9.80;99.90;;;;;;5053679;28;20097;-50
2024/03/15 03:02:27;;;;;;;7.75;3.00;;;9.80;99.90;;;;;;5044222;28;20025;-54
2024/03/15 03:04:53;;;;;;;4.75;2.72;;;9.80;99.90;;;;;;5046125;28;20041;-47
2024/03/15 03:07:19;;;;;;;5.45;3.72;;;9.90;99.90;;;;;;5050036;28;20029;-52
2024/03/15 03:09:44;;;;;;;7.53;3.13;;;9.90;99.90;;;;;;5050027;28;20104;-49
2024/03/15 03:12:10;;;;;;;6.10;3.33;;;10.00;99.90;;;;;;5051151;28;20029;-48
2024/03/15 03:14:35;;;;;;;4.78;2.97;;;10.00;99.90;;;;;;5053628;28;20036;-50
2024/03/15 03:17:01;;;;;;;4.85;2.55;;;10.10;99.90;;;;;;5044985;28;20045;-50
2024/03/15 03:19:26;;;;;;;5.68;2.65;;;10.00;99.90;;;;;;5050701;28;20116;-47
2024/03/15 03:21:54;;;;;;;5.72;2.50;;;10.10;99.90;;;;;;5052999;28;20061;-51
2024/03/15 03:24:20;;;;;;;5.63;2.83;;;10.10;99.90;;;;;;5048211;28;20021;-50
2024/03/15 03:26:46;;;;;;;6.00;3.13;;;10.00;99.90;;;;;;5051197;28;20058;-50
2024/03/15 03:29:12;;;;;;;7.75;2.83;;;10.00;99.90;;;;;;5050783;28;20025;-48
2024/03/15 03:31:37;;;;;;;4.97;2.92;;;10.00;99.90;;;;;;5047738;28;20029;-51
2024/03/15 03:34:03;;;;;;;5.60;2.92;;;10.00;99.90;;;;;;5050462;28;20040;-50
2024/03/15 03:36:29;;;;;;;7.20;3.17;;;10.00;99.90;;;;;;5049874;28;20592;-48
2024/03/15 03:38:54;;;;;;;4.97;2.60;;;9.90;99.90;;;;;;5050598;28;20029;-48
2024/03/15 03:41:20;;;;;;;4.25;2.55;;;9.90;99.90;;;;;;5048380;28;20029;-48
2024/03/15 03:43:45;;;;;;;7.68;2.72;;;9.90;99.90;;;;;;5050478;28;20043;-49
2024/03/15 03:46:13;;;;;;;4.05;2.95;;;10.00;99.90;;;;;;5053925;28;20463;-49
2024/03/15 03:48:38;;;;;;;6.40;2.83;;;9.90;99.90;;;;;;5050938;28;20033;-47
2024/03/15 03:51:04;;;;;;;6.45;2.80;;;9.90;99.90;;;;;;5049235;28;20028;-49
2024/03/15 03:53:30;;;;;;;6.05;2.47;;;9.80;99.90;;;;;;5049325;28;20760;-50
2024/03/15 03:55:56;;;;;;;11.90;3.03;;;9.80;99.90;;;;;;5051135;28;20063;-51
2024/03/15 03:58:25;;;;;;;5.88;2.67;;;9.70;99.90;;;;;;5053094;28;20031;-49
2024/03/15 04:00:50;;;;;;;9.27;2.80;;;9.70;99.90;;;;;;5053317;28;20116;-49
2024/03/15 04:03:17;;;;;;;4.75;2.75;;;9.70;99.90;;;;;;5051471;28;20412;-53
2024/03/15 04:05:43;;;;;;;10.18;2.90;;;9.60;99.90;;;;;;5054059;28;20451;-48
2024/03/15 04:08:10;;;;;;;4.90;2.60;;;9.60;99.90;;;;;;5050731;28;20029;-47
2024/03/15 04:10:36;;;;;;;6.25;2.60;;;9.70;99.90;;;;;;5053399;28;20040;-49
2024/03/15 04:13:02;;;;;;;8.05;3.40;;;9.70;99.90;;;;;;5062832;28;20036;-51
2024/03/15 04:15:28;;;;;;;6.10;2.90;;;9.70;99.90;;;;;;5049001;28;20056;-53
2024/03/15 04:17:54;;;;;;;5.68;2.50;;;9.70;99.90;;;;;;5056694;28;20060;-53
2024/03/15 04:20:22;;;;;;;4.55;2.38;;;9.70;99.90;;;;;;5057917;28;20166;-49
2024/03/15 04:22:48;;;;;;;4.57;2.42;;;9.70;99.90;;;;;;5061848;28;20544;-48
2024/03/15 04:25:16;;;;;;;5.05;2.97;;;9.70;99.90;;;;;;5067174;28;20032;-47
2024/03/15 04:27:48;;;;;;;5.45;2.55;;;9.70;99.90;;;;;;5054012;28;20025;-47
2024/03/15 04:30:14;;;;;;;6.68;3.25;;;9.70;99.90;;;;;;5055970;28;20155;-54
2024/03/15 04:32:41;;;;;;;7.20;2.85;;;9.70;99.90;;;;;;5048317;28;20494;-48
2024/03/15 04:35:06;;;;;;;5.90;2.53;;;9.70;99.90;;;;;;5053691;28;20566;-47
2024/03/15 04:37:33;;;;;;;4.78;2.17;;;9.80;99.90;;;;;;5053257;28;20033;-48
2024/03/15 04:39:59;;;;;;;5.63;2.95;;;9.80;99.90;;;;;;5053728;28;20029;-52
2024/03/15 04:42:28;;;;;;;5.35;2.22;;;9.90;99.90;;;;;;5050891;28;20044;-47
2024/03/15 04:44:54;;;;;;;6.03;2.47;;;9.90;99.90;;;;;;5053914;28;20434;-53
2024/03/15 04:47:19;;;;;;;6.93;2.75;;;9.90;99.90;;;;;;5061463;28;20035;-51
2024/03/15 04:49:45;;;;;;;4.97;2.67;;;9.90;99.90;;;;;;5055925;28;20091;-48
2024/03/15 04:52:12;;;;;;;3.67;2.38;;;9.90;99.90;;;;;;5063317;28;20036;-51
2024/03/15 04:54:38;;;;;;;6.53;2.40;;;10.00;99.90;;;;;;5051023;28;20060;-48
2024/03/15 04:57:04;;;;;;;2.72;2.10;;;9.90;99.90;;;;;;5053297;28;20025;-51
2024/03/15 04:59:30;;;;;;;4.13;2.42;;;10.00;99.90;;;;;;5046786;28;20141;-50
2024/03/15 05:01:55;;;;;;;7.10;2.33;;;10.00;99.90;;;;;;5052778;28;20025;-48
2024/03/15 05:04:21;;;;;;;6.18;2.28;;;10.10;99.90;;;;;;5051794;28;20025;-49
2024/03/15 05:06:46;;;;;;;4.15;2.28;;;10.10;99.90;;;;;;5048938;28;20037;-51
2024/03/15 05:09:12;;;;;;;6.40;2.53;;;10.20;99.90;;;;;;5052851;28;20037;-49
2024/03/15 05:11:40;;;;;;;4.63;2.80;;;10.20;99.90;;;;;;5050062;28;20065;-48
2024/03/15 05:14:08;;;;;;;7.07;2.75;;;10.30;99.90;;;;;;5061126;22;20005;-54
2024/03/15 05:16:33;;;;;;;8.52;2.78;;;10.40;99.90;;;;;;5072001;28;20032;-50
2024/03/15 05:18:59;;;;;;;5.88;2.00;;;10.50;99.90;;;;;;5071936;28;20519;-54
2024/03/15 05:21:25;;;;;;;4.45;2.53;;;10.40;99.90;;;;;;5072400;28;20032;-53
2024/03/15 05:23:50;;;;;;;4.28;2.38;;;10.40;99.90;;;;;;5068296;28;20031;-53
2024/03/15 05:26:17;;;;;;;3.63;2.10;;;10.40;99.90;;;;;;5044319;28;20096;-51
2024/03/15 05:28:44;;;;;;;6.70;3.20;;;10.50;99.90;;;;;;5046504;28;20103;-54
2024/03/15 05:31:10;;;;;;;5.22;2.50;;;10.50;99.90;;;;;;5050255;28;20017;-54
2024/03/15 05:33:37;;;;;;;6.75;3.28;;;10.50;99.90;;;;;;5052213;28;20497;-52
2024/03/15 05:36:05;;;;;;;9.77;2.65;;;10.50;99.90;;;;;;5048638;28;20108;-51
2024/03/15 05:38:31;;;;;;;7.07;2.95;;;10.60;99.90;;;;;;5034855;28;20025;-50
2024/03/15 05:41:00;;;;;;;6.47;2.75;;;10.60;99.90;;;;;;5049386;28;20020;-51
2024/03/15 05:43:26;;;;;;;6.45;2.67;;;10.60;99.90;;;;;;5044603;28;20450;-51
2024/03/15 05:45:51;;;;;;;5.22;2.45;;;10.70;99.90;;;;;;5043748;28;20090;-55
2024/03/15 05:48:17;;;;;;;3.63;2.42;;;10.70;99.90;;;;;;5051334;28;20316;-51
2024/03/15 05:50:43;;;;;;;4.88;2.65;;;10.80;99.90;;;;;;5042765;28;20036;-52
2024/03/15 05:53:08;;;;;;;3.72;1.95;;;10.80;99.90;;;;;;5048854;28;20035;-54
2024/03/15 05:55:34;;;;;;;5.50;2.63;;;10.80;99.90;;;;;;5046733;28;20159;-50
2024/03/15 05:58:01;;;;;;;5.53;2.55;;;10.70;99.90;;;;;;5046174;28;20032;-51
2024/03/15 06:00:27;;;;;;;5.82;2.20;;;10.70;99.90;;;;;;5050079;28;20077;-54
2024/03/15 06:02:52;;;;;;;4.53;2.67;;;10.80;99.90;;;;;;5042804;28;20068;-51
2024/03/15 06:05:18;;;;;;;7.03;2.53;;;10.80;99.90;;;;;;5037426;28;20044;-54
2024/03/15 06:07:45;;;;;;;3.55;2.40;;;10.80;99.90;;;;;;5037097;28;20075;-54
2024/03/15 06:10:11;;;;;;;5.68;2.70;;;10.80;99.90;;;;;;5050756;28;20021;-53
2024/03/15 06:12:36;;;;;;;5.45;2.88;;;10.80;99.90;;;;;;5042113;28;20450;-51
2024/03/15 06:15:03;;;;;;;3.95;2.25;;;10.80;99.90;;;;;;5047844;28;20029;-51
2024/03/15 06:17:32;;;;;;;8.52;2.50;;;10.90;99.90;;;;;;5046105;28;20038;-51
2024/03/15 06:19:58;;;;;;;10.35;2.15;;;10.90;99.90;;;;;;5030785;28;20360;-51
2024/03/15 06:22:26;;;;;;;3.72;2.08;;;11.00;99.90;;;;;;5042426;28;20486;-54
2024/03/15 06:24:54;;;;;;;3.92;2.35;;;11.00;99.90;;;;;;5048145;28;20033;-53
2024/03/15 06:27:20;;;;;;;9.07;3.65;;;11.00;99.90;;;;;;5049856;28;20044;-55
2024/03/15 06:29:50;;;;;;;5.40;2.58;;;11.00;99.90;;;;;;5051011;28;20033;-51
2024/03/15 06:32:17;;;;;;;4.97;2.60;;;11.10;99.90;;;;;;5048290;28;20032;-54
2024/03/15 06:34:44;;;;;;;4.47;2.20;;;11.20;99.90;;;;;;5040098;28;20021;-54
2024/03/15 06:37:12;;;;;;;4.93;2.75;;;11.10;99.90;;;;;;5048393;28;20136;-51
2024/03/15 06:42:20;;;;;;;4.10;2.40;;;11.20;99.90;;;;;;5050389;28;20044;-51
2024/03/15 06:44:50;;;;;;;7.45;2.88;;;11.30;99.90;;;;;;5045469;28;20071;-53
2024/03/15 06:47:16;;;;;;;3.88;2.38;;;11.40;99.90;;;;;;5031927;28;20025;-54
2024/03/15 06:52:35;;;;;;;5.00;1.90;;;11.40;99.90;;;;;;5038345;28;20059;-52
2024/03/15 06:55:07;;;;;;;6.85;2.45;;;11.50;99.90;;;;;;5050017;28;20129;-53
2024/03/15 06:57:33;;;;;;;7.10;2.35;;;11.50;99.90;;;;;;5036730;28;20053;-52
2024/03/15 07:00:05;;;;;;;4.18;2.38;;;11.50;99.90;;;;;;5048308;28;20052;-52
2024/03/15 07:02:31;;;;;;;4.35;2.40;;;11.60;99.90;;;;;;5050088;28;20067;-52
2024/03/15 07:04:56;;;;;;;3.63;2.10;;;11.60;99.90;;;;;;5041977;28;20038;-54
2024/03/15 07:07:22;;;;;;;5.55;2.45;;;11.70;99.90;;;;;;5049423;28;20040;-53
2024/03/15 07:09:48;;;;;;;7.25;2.45;;;11.70;99.90;;;;;;5049144;28;20025;-51
2024/03/15 07:12:16;;;;;;;5.78;2.25;;;11.80;99.90;;;;;;5050364;28;20475;-52
2024/03/15 07:14:42;;;;;;;4.00;2.25;;;11.80;99.90;;;;;;5050357;28;20091;-50
2024/03/15 07:17:09;;;;;;;4.53;2.13;;;11.90;99.90;;;;;;5049895;28;20083;-52
2024/03/15 07:19:35;;;;;;;5.70;2.20;;;11.90;99.90;;;;;;5049872;28;20035;-52
2024/03/15 07:22:01;;;;;;;3.95;1.98;;;12.00;99.90;;;;;;5048770;28;20060;-53
2024/03/15 07:24:27;;;;;;;4.55;2.55;;;12.00;99.90;;;;;;5050317;28;20056;-52
2024/03/15 07:26:52;;;;;;;6.70;2.13;;;12.10;99.90;;;;;;5041805;28;20431;-52
2024/03/15 07:29:18;;;;;;;6.78;2.45;;;12.10;99.90;;;;;;5038769;28;20364;-51
2024/03/15 07:31:43;;;;;;;6.70;2.40;;;12.10;99.90;;;;;;5045873;28;20468;-50
2024/03/15 07:34:09;;;;;;;4.38;2.05;;;12.20;99.90;;;;;;5047618;28;20029;-53
2024/03/15 07:36:34;;;;;;;5.20;2.35;;;12.20;99.90;;;;;;5049283;28;20065;-50
2024/03/15 07:39:00;;;;;;;5.25;2.25;;;12.20;99.90;;;;;;5046388;28;20383;-53
2024/03/15 07:41:31;;;;;;;10.43;2.70;;;12.20;99.90;;;;;;5045241;28;20428;-53
2024/03/15 07:43:58;;;;;;;4.82;2.10;;;12.30;99.90;;;;;;5042647;28;20704;-50
2024/03/15 07:46:24;;;;;;;5.28;2.92;;;12.40;99.90;;;;;;5052213;28;20025;-53
2024/03/15 07:48:50;;;;;;;4.85;2.10;;;12.40;99.90;;;;;;5048534;28;20028;-56
2024/03/15 07:51:16;;;;;;;6.85;2.50;;;12.50;99.90;;;;;;5053600;28;20039;-54
2024/03/15 07:53:41;;;;;;;4.28;2.00;;;12.60;99.90;;;;;;5046170;28;20032;-50
2024/03/15 07:56:09;;;;;;;4.72;2.30;;;12.60;99.90;;;;;;5047030;28;20398;-52
2024/03/15 07:58:36;;;;;;;8.90;2.78;;;12.70;99.90;;;;;;5052234;28;20029;-52
2024/03/15 08:01:07;;;;;;;7.43;2.53;;;12.90;99.90;;;;;;5052579;28;20033;-54
2024/03/15 08:03:36;;;;;;;5.38;2.60;;;13.10;99.90;;;;;;5045027;28;20036;-51
2024/03/15 08:06:05;;;;;;;6.63;2.80;;;13.20;99.90;;;;;;5053168;28;20029;-51
2024/03/15 08:08:31;;;;;;;4.30;2.25;;;13.20;99.90;;;;;;5053043;28;20446;-53
2024/03/15 08:10:57;;;;;;;6.88;2.20;;;13.20;99.90;;;;;;5052574;28;20032;-59
2024/03/15 08:13:25;;;;;;;3.63;2.17;;;13.20;99.90;;;;;;5051831;28;20513;-50
2024/03/15 08:15:55;;;;;;;9.13;2.65;;;13.10;99.90;;;;;;5049753;28;20105;-54
2024/03/15 08:18:20;;;;;;;5.22;2.45;;;13.00;99.90;;;;;;5045094;28;20104;-53
2024/03/15 08:20:47;;;;;;;5.40;2.65;;;13.00;99.90;;;;;;5052803;28;20135;-53
2024/03/15 08:23:13;;;;;;;5.15;2.20;;;13.00;99.90;;;;;;5050299;28;20517;-55
2024/03/15 08:25:41;;;;;;;3.67;2.33;;;13.00;99.90;;;;;;5050343;28;20048;-53
2024/03/15 08:28:07;;;;;;;4.53;2.47;;;12.90;99.90;;;;;;5046695;28;20036;-52
2024/03/15 08:30:33;;;;;;;4.25;2.80;;;12.90;99.90;;;;;;5044122;28;20055;-52
2024/03/15 08:32:58;;;;;;;5.53;2.63;;;12.80;99.90;;;;;;5039451;28;20025;-53
2024/03/15 08:35:24;;;;;;;11.57;2.72;;;12.90;99.90;;;;;;5042105;28;20554;-54
2024/03/15 08:37:50;;;;;;;12.13;4.80;;;12.90;99.90;;;;;;5051164;28;20414;-53
2024/03/15 08:40:16;;;;;;;10.20;3.58;;;12.80;99.90;;;;;;5050048;28;20462;-52
2024/03/15 08:42:45;;;;;;;12.90;5.03;;;12.90;99.90;;;;;;5050749;28;20036;-50
2024/03/15 08:45:12;;;;;;;9.50;2.75;;;12.90;99.90;;;;;;5051813;28;20104;-52
2024/03/15 08:47:39;;;;;;;5.38;2.58;;;12.90;99.90;;;;;;5045331;28;20033;-54
2024/03/15 08:50:08;;;;;;;5.22;2.40;;;13.00;99.90;;;;;;5048881;28;20037;-50
2024/03/15 08:52:34;;;;;;;5.07;2.55;;;12.90;99.90;;;;;;5052494;28;20029;-49
2024/03/15 08:54:59;;;;;;;7.93;2.47;;;12.90;99.90;;;;;;5044083;28;20091;-52
2024/03/15 08:57:25;;;;;;;3.97;2.20;;;12.90;99.90;;;;;;5052028;28;20392;-54
2024/03/15 08:59:51;;;;;;;3.78;2.17;;;13.00;99.90;;;;;;5049454;28;20148;-54
2024/03/15 09:02:17;;;;;;;3.42;2.30;;;13.10;99.90;;;;;;5044253;28;20524;-50
2024/03/15 09:04:45;;;;;;;3.85;2.22;;;13.10;99.90;;;;;;5045513;28;20516;-50
2024/03/15 09:07:10;;;;;;;9.07;2.15;;;13.00;99.90;;;;;;5050689;28;20051;-53
2024/03/15 09:09:40;;;;;;;3.22;2.03;;;13.00;99.90;;;;;;5049276;28;20029;-53
2024/03/15 09:12:05;;;;;;;3.90;2.10;;;12.90;99.90;;;;;;5050643;28;20055;-56
2024/03/15 09:14:32;;;;;;;5.97;1.98;;;12.90;99.90;;;;;;5045656;28;20105;-50
2024/03/15 09:16:58;;;;;;;8.93;3.30;;;13.00;99.90;;;;;;5050009;28;20657;-54
2024/03/15 09:19:25;;;;;;;4.63;2.42;;;13.00;99.90;;;;;;5047403;28;20100;-54
2024/03/15 09:21:51;;;;;;;4.50;2.47;;;13.20;99.90;;;;;;5044666;28;20040;-52
2024/03/15 09:24:18;;;;;;;6.97;2.78;;;13.20;99.90;;;;;;5047086;28;20438;-51
2024/03/15 09:26:43;;;;;;;5.88;2.70;;;13.30;99.90;;;;;;5047375;28;20479;-50
2024/03/15 09:29:09;;;;;;;2.65;2.10;;;13.40;99.90;;;;;;5047663;28;20033;-51
2024/03/15 09:31:38;;;;;;;5.32;2.95;;;13.40;99.90;;;;;;5045531;28;20021;-53
2024/03/15 09:34:05;;;;;;;6.68;3.20;;;13.50;99.90;;;;;;5037388;28;20044;-50
2024/03/15 09:36:32;;;;;;;6.25;2.20;;;13.50;99.90;;;;;;5048111;28;20024;-51
2024/03/15 09:38:58;;;;;;;10.07;2.47;;;13.50;99.90;;;;;;5040767;28;20041;-53
2024/03/15 09:41:23;;;;;;;2.80;1.92;;;13.60;99.90;;;;;;5046009;28;20049;-56
2024/03/15 09:43:50;;;;;;;4.57;2.42;;;13.70;99.90;;;;;;5049809;28;20032;-53
2024/03/15 09:46:16;;;;;;;4.80;2.83;;;13.80;99.90;;;;;;5043306;28;20094;-54
2024/03/15 09:48:44;;;;;;;7.72;2.28;;;13.90;99.90;;;;;;5050829;28;20055;-51
2024/03/15 09:51:14;;;;;;;6.22;2.38;;;13.80;99.90;;;;;;5035887;28;20082;-50
2024/03/15 09:53:40;;;;;;;6.10;2.40;;;13.90;99.90;;;;;;5045051;28;20033;-52
2024/03/15 09:56:15;;;;;;;5.90;2.55;;;13.80;99.90;;;;;;5046467;28;20025;-56
2024/03/15 09:58:42;;;;;;;4.90;2.30;;;13.80;99.90;;;;;;5042635;28;20033;-53
2024/03/15 10:01:13;;;;;;;11.13;2.97;;;13.90;99.90;;;;;;5044985;28;20025;-53
2024/03/15 10:03:41;;;;;;;15.93;2.85;;;14.00;99.90;;;;;;5049802;28;20061;-56
2024/03/15 10:06:09;;;;;;;4.03;2.00;;;14.00;99.90;;;;;;5048134;28;20108;-53
2024/03/15 10:08:36;;;;;;;9.55;2.50;;;14.10;99.90;;;;;;5050882;28;20083;-53
2024/03/15 10:11:02;;;;;;;5.35;1.92;;;14.30;99.90;;;;;;5047368;28;20029;-52
2024/03/15 10:13:29;;;;;;;3.28;2.20;;;14.50;99.90;;;;;;5047328;28;20082;-52
2024/03/15 10:15:54;;;;;;;3.70;2.13;;;14.50;99.90;;;;;;5048024;28;20037;-54
2024/03/15 10:18:20;;;;;;;10.98;3.28;;;14.50;99.90;;;;;;5051107;28;20372;-51
2024/03/15 10:20:47;;;;;;;4.88;1.95;;;14.50;99.90;;;;;;5049478;28;20032;-51
2024/03/15 10:23:13;;;;;;;2.47;2.08;;;14.50;99.90;;;;;;5049169;28;20032;-54
2024/03/15 10:25:38;;;;;;;5.15;1.38;;;14.60;99.90;;;;;;5048879;28;20502;-54
2024/03/15 10:28:10;;;;;;;5.95;1.42;;;14.50;99.90;;;;;;5050847;28;20025;-51
2024/03/15 10:30:36;;;;;;;2.97;1.05;;;14.60;99.90;;;;;;5048301;28;20021;-54
2024/03/15 10:33:03;;;;;;;2.47;1.10;;;14.60;99.90;;;;;;5049871;28;20045;-54
2024/03/15 10:35:29;;;;;;;1.77;1.15;;;14.60;99.90;;;;;;5044813;28;20041;-51
2024/03/15 10:37:55;;;;;;;2.33;1.30;;;14.70;99.90;;;;;;5030795;28;20390;-56
2024/03/15 10:40:25;;;;;;;3.33;0.90;;;15.00;99.90;;;;;;5047787;28;20099;-53
2024/03/15 10:42:54;;;;;;;6.18;1.23;;;15.20;99.90;;;;;;5048741;28;20479;-51
2024/03/15 10:45:27;;;;;;;2.13;1.50;;;15.30;99.90;;;;;;5046719;28;20044;-55
2024/03/15 10:47:54;;;;;;;3.10;1.85;;;15.60;99.90;;;;;;5049602;28;20503;-53
2024/03/15 10:50:24;;;;;;;2.75;2.17;;;15.80;99.90;;;;;;5038524;28;20037;-52
2024/03/15 10:52:52;;;;;;;9.93;3.83;;;16.00;99.90;;;;;;5044534;28;20024;-55
2024/03/15 10:55:19;;;;;;;3.05;1.73;;;16.20;99.90;;;;;;5048682;28;20449;-50
2024/03/15 10:57:45;;;;;;;2.00;1.00;;;16.40;99.90;;;;;;5049969;28;20075;-51
2024/03/15 11:00:17;;;;;;;2.47;1.10;;;16.40;99.90;;;;;;5042857;28;20047;-53
2024/03/15 11:02:49;;;;;;;1.73;0.93;;;16.40;99.90;;;;;;5047889;28;20025;-52
2024/03/15 11:05:20;;;;;;;1.98;1.35;;;16.40;99.90;;;;;;5045698;28;20063;-51
2024/03/15 11:07:47;;;;;;;2.33;1.60;;;16.30;99.90;;;;;;5056424;28;20035;-52
2024/03/15 11:10:22;;;;;;;7.57;3.88;;;16.20;99.90;;;;;;5054491;28;20041;-51
2024/03/15 11:12:51;;;;;;;6.22;3.28;;;16.30;99.90;;;;;;5056861;28;20090;-53
2024/03/15 11:15:22;;;;;;;11.75;7.60;;;16.30;99.90;;;;;;5047125;28;20048;-53
2024/03/15 11:18:07;;;;;;;11.32;7.85;;;16.20;99.90;;;;;;5072071;22;20083;-58
2024/03/15 11:20:54;;;;;;;4.45;2.45;;;16.30;99.90;;;;;;5036997;28;20113;-56
2024/03/15 11:23:25;;;;;;;4.93;3.05;;;16.30;99.90;;;;;;5037221;28;20037;-55
2024/03/15 11:25:58;;;;;;;3.35;1.80;;;16.60;99.90;;;;;;5037204;28;20101;-58
2024/03/15 11:28:25;;;;;;;9.85;2.15;;;16.60;99.90;;;;;;5037808;28;20565;-56
2024/03/15 11:30:50;;;;;;;2.35;1.20;;;16.60;99.90;;;;;;5028518;28;20025;-54
2024/03/15 11:33:16;;;;;;;33.85;14.27;;;16.60;99.90;;;;;;5017660;28;20029;-58
2024/03/15 11:35:43;;;;;;;47.15;22.30;;;16.70;99.90;;;;;;5017543;28;20460;-57
2024/03/15 11:38:13;;;;;;;4.00;2.38;;;16.70;99.90;;;;;;5017395;28;20034;-54
2024/03/15 11:40:40;;;;;;;86.63;30.70;;;16.40;99.90;;;;;;5017515;28;20030;-54
2024/03/15 11:43:07;;;;;;;82.82;29.75;;;16.20;99.90;;;;;;5015968;28;20491;-58
2024/03/15 11:45:37;;;;;;;149.40;55.50;;;16.00;99.90;;;;;;5017598;28;20117;-56
2024/03/15 11:48:16;;;;;;;115.47;46.17;;;16.00;99.90;;;;;;5021219;28;20029;-58
2024/03/15 11:50:45;;;;;;;98.10;38.72;;;15.90;99.90;;;;;;5035124;28;20021;-58
2024/03/15 11:53:12;;;;;;;48.45;20.48;;;15.90;99.90;;;;;;5032396;28;20446;-56
2024/03/15 11:55:41;;;;;;;25.02;10.65;;;16.00;99.90;;;;;;5017446;28;20044;-55
2024/03/15 11:58:15;;;;;;;17.77;8.52;;;15.90;99.90;;;;;;5029760;28;20033;-55
2024/03/15 12:00:42;;;;;;;15.32;6.78;;;16.00;99.90;;;;;;5026067;28;20041;-58
2024/03/15 12:03:18;;;;;;;8.80;4.05;;;15.90;99.90;;;;;;5017062;28;20041;-53
2024/03/15 12:05:44;;;;;;;4.88;2.40;;;15.90;99.90;;;;;;5017278;28;20152;-57
2024/03/15 12:08:20;;;;;;;7.38;2.50;;;15.80;99.90;;;;;;5017299;28;20026;-57
2024/03/15 12:10:46;;;;;;;17.38;7.72;;;16.10;99.90;;;;;;5035542;28;20026;-56
2024/03/15 12:13:23;;;;;;;22.80;9.85;;;16.30;99.90;;;;;;5026566;28;20034;-56
2024/03/15 12:15:53;;;;;;;9.02;3.80;;;16.50;99.90;;;;;;5016205;28;20037;-57
2024/03/15 12:18:20;;;;;;;20.83;5.72;;;16.90;99.90;;;;;;5013751;28;20092;-62
2024/03/15 12:20:47;;;;;;;14.45;6.22;;;17.10;99.90;;;;;;5014054;28;20021;-57
2024/03/15 12:23:20;;;;;;;9.30;3.35;;;17.10;99.90;;;;;;5014088;28;20510;-55
2024/03/15 12:25:47;;;;;;;12.25;2.92;;;17.00;99.90;;;;;;5013905;28;20030;-56
2024/03/15 12:28:14;;;;;;;9.25;2.65;;;16.80;99.90;;;;;;5014720;28;20049;-57
2024/03/15 12:30:42;;;;;;;5.60;2.50;;;16.70;99.90;;;;;;5007503;28;20508;-56
2024/03/15 12:33:08;;;;;;;5.65;2.05;;;16.50;99.90;;;;;;5013910;28;20056;-55
2024/03/15 12:35:34;;;;;;;7.35;3.72;;;16.40;99.90;;;;;;5014047;28;20030;-56
2024/03/15 12:38:00;;;;;;;6.72;3.20;;;16.10;99.90;;;;;;5013412;28;20029;-58
2024/03/15 12:40:26;;;;;;;4.43;2.55;;;16.00;99.90;;;;;;5013848;28;20054;-54
2024/03/15 12:42:52;;;;;;;2.90;1.55;;;15.90;99.90;;;;;;5014557;28;20030;-62
2024/03/15 12:45:18;;;;;;;3.67;1.83;;;16.00;99.90;;;;;;5017001;28;20453;-54
2024/03/15 12:47:43;;;;;;;3.08;1.98;;;16.10;99.90;;;;;;5012107;28;20026;-55
2024/03/15 12:50:21;;;;;;;4.35;2.38;;;16.20;99.90;;;;;;5024482;28;20537;-57
2024/03/15 12:52:47;;;;;;;2.67;1.20;;;16.50;99.90;;;;;;5032023;28;20113;-58